Terminal Aerodrome Forecast
Issued by NWS

Home | Current Version | Previous Version | Text Only | Print | Product List | Glossary On
Versions: 1 2 3 4 5 6 7 8 9 10 11 12 13 14 15 16 17 18 19 20 21 22 23 24
000
FTUS45 KSLC 172320
TAFLGU
TAF
KLGU 172320Z 1800/1824 00000KT P6SM SKC
     FM180200 00000KT 5SM BR SKC
     FM180300 00000KT 2SM BR BCFG FEW009
     FM181100 00000KT 1/2SM FZFG VV001
     FM181600 VRB03KT 2SM BR BCFG FEW009
     FM181900 VRB03KT 5SM BR SKC=

USA.gov is the U.S. government's official web portal to all federal, state and local government web resources and services.